createdAt,value
2018-12-25T00:01:08.329Z,10.07
2018-12-25T00:03:35.668Z,9.97
2018-12-25T00:06:03.219Z,11.23
2018-12-25T00:08:30.548Z,9.77
2018-12-25T00:10:57.857Z,11.43
2018-12-25T00:13:25.181Z,10.13
2018-12-25T00:15:52.639Z,13.47
2018-12-25T00:18:19.970Z,11.70
2018-12-25T00:23:41.015Z,9.50
2018-12-25T00:26:08.673Z,10.90
2018-12-25T00:28:36.233Z,9.63
2018-12-25T00:31:03.551Z,14.87
2018-12-25T00:33:31.146Z,9.00
2018-12-25T00:35:58.517Z,9.63
2018-12-25T00:38:25.851Z,10.97
2018-12-25T00:40:53.170Z,9.43
2018-12-25T00:43:20.557Z,11.67
2018-12-25T00:45:48.226Z,10.73
2018-12-25T00:48:15.553Z,11.37
2018-12-25T00:50:42.853Z,10.77
2018-12-25T00:53:10.179Z,11.73
2018-12-25T00:55:37.766Z,11.67
2018-12-25T00:58:05.105Z,11.63
2018-12-25T01:00:32.754Z,10.37
2018-12-25T01:03:00.310Z,14.37
2018-12-25T01:05:27.638Z,11.83
2018-12-25T01:07:54.968Z,10.20
2018-12-25T01:10:22.578Z,12.90
2018-12-25T01:12:49.910Z,10.47
2018-12-25T01:15:17.211Z,9.50
2018-12-25T01:17:44.553Z,10.73
2018-12-25T01:20:11.855Z,12.07
2018-12-25T01:22:39.162Z,11.53
2018-12-25T01:25:06.497Z,10.17
2018-12-25T01:27:33.814Z,9.70
2018-12-25T01:30:01.147Z,11.27
2018-12-25T01:32:28.474Z,10.93
2018-12-25T01:34:56.224Z,10.00
2018-12-25T01:37:23.542Z,11.07
2018-12-25T01:39:50.894Z,10.10
2018-12-25T01:42:18.198Z,11.03
2018-12-25T01:44:45.526Z,13.40
2018-12-25T01:47:12.829Z,9.57
2018-12-25T01:49:40.443Z,11.80
2018-12-25T01:52:07.747Z,9.63
2018-12-25T01:54:35.055Z,10.33
2018-12-25T01:57:02.387Z,9.33
2018-12-25T01:59:29.694Z,10.67
2018-12-25T02:01:57.007Z,10.63
2018-12-25T02:04:24.346Z,8.87
2018-12-25T02:06:51.653Z,10.17
2018-12-25T02:09:18.982Z,10.40
2018-12-25T02:11:46.309Z,10.10
2018-12-25T02:14:13.982Z,12.03
2018-12-25T02:16:41.289Z,9.60
2018-12-25T02:19:08.902Z,9.13
2018-12-25T02:21:36.305Z,10.27
2018-12-25T02:24:03.695Z,11.57
2018-12-25T02:26:31.006Z,11.80
2018-12-25T02:28:58.342Z,10.83
2018-12-25T02:31:25.643Z,9.23
2018-12-25T02:33:53.222Z,10.27
2018-12-25T02:36:20.529Z,9.53
2018-12-25T02:38:47.870Z,10.17
2018-12-25T02:41:15.242Z,11.67
2018-12-25T02:43:42.843Z,10.00
2018-12-25T02:46:10.167Z,10.13
2018-12-25T02:48:37.475Z,12.20
2018-12-25T02:51:05.107Z,10.03
2018-12-25T02:53:32.417Z,8.97
2018-12-25T02:55:59.971Z,10.13
2018-12-25T02:58:27.684Z,11.07
2018-12-25T03:00:54.994Z,11.60
2018-12-25T03:03:22.321Z,11.10
2018-12-25T03:05:49.947Z,10.67
2018-12-25T03:08:17.255Z,9.07
2018-12-25T03:10:44.966Z,10.53
2018-12-25T03:13:12.307Z,9.53
2018-12-25T03:15:39.885Z,11.63
2018-12-25T03:18:07.190Z,9.07
2018-12-25T03:20:34.532Z,9.40
2018-12-25T03:23:01.828Z,8.77
2018-12-25T03:25:29.263Z,9.50
2018-12-25T03:27:56.577Z,11.80
2018-12-25T03:30:23.884Z,10.17
2018-12-25T03:32:51.203Z,9.37
2018-12-25T03:35:18.521Z,10.90
2018-12-25T03:37:45.838Z,10.37
2018-12-25T03:40:13.170Z,11.57
2018-12-25T03:42:40.771Z,12.53
2018-12-25T03:45:08.101Z,10.37
2018-12-25T03:47:35.431Z,11.03
2018-12-25T03:52:56.326Z,9.03
2018-12-25T03:55:23.634Z,10.03
2018-12-25T03:57:50.967Z,10.00
2018-12-25T04:00:18.294Z,11.23
2018-12-25T04:02:45.627Z,11.87
2018-12-25T04:05:13.266Z,11.53
2018-12-25T04:07:40.823Z,10.73
2018-12-25T04:10:08.148Z,10.57
2018-12-25T04:12:35.581Z,13.73
2018-12-25T04:15:02.946Z,10.97
2018-12-25T04:17:30.546Z,11.07
2018-12-25T04:19:57.851Z,15.27
2018-12-25T04:22:25.250Z,14.43
2018-12-25T04:24:52.810Z,11.73
2018-12-25T04:27:20.470Z,22.10
2018-12-25T04:29:48.137Z,16.53
2018-12-25T04:32:15.881Z,9.93
2018-12-25T04:34:43.406Z,12.83
2018-12-25T04:37:10.787Z,8.53
2018-12-25T04:39:38.089Z,11.23
2018-12-25T04:42:05.417Z,9.67
2018-12-25T04:44:32.753Z,9.07
2018-12-25T04:47:00.067Z,10.60
2018-12-25T04:49:27.362Z,8.63
2018-12-25T04:51:54.694Z,12.50
2018-12-25T04:54:22.071Z,9.13
2018-12-25T04:56:49.401Z,9.03
2018-12-25T04:59:16.729Z,10.57
2018-12-25T05:01:44.059Z,9.43
2018-12-25T05:04:11.370Z,10.13
2018-12-25T05:06:38.679Z,9.20
2018-12-25T05:11:59.371Z,11.60
2018-12-25T05:14:26.696Z,10.30
2018-12-25T05:16:53.999Z,7.70
2018-12-25T05:19:21.328Z,7.97
2018-12-25T05:21:48.629Z,9.27
2018-12-25T05:24:16.230Z,8.70
2018-12-25T05:26:43.537Z,7.67
2018-12-25T05:29:10.870Z,8.50
2018-12-25T05:31:38.198Z,8.90
2018-12-25T05:34:05.861Z,9.53
2018-12-25T05:36:33.172Z,8.17
2018-12-25T05:39:00.500Z,8.13
2018-12-25T05:41:27.817Z,8.27
2018-12-25T05:43:55.465Z,7.93
2018-12-25T05:46:22.922Z,9.27
2018-12-25T05:48:51.920Z,8.73
2018-12-25T05:51:19.251Z,9.07
2018-12-25T05:53:46.558Z,7.60
2018-12-25T05:56:13.895Z,7.27
2018-12-25T05:58:41.209Z,8.70
2018-12-25T06:01:08.649Z,9.30
2018-12-25T06:03:36.248Z,7.23
2018-12-25T06:06:03.586Z,7.70
2018-12-25T06:08:30.891Z,7.73
2018-12-25T06:10:58.192Z,7.97
2018-12-25T06:13:25.745Z,9.70
2018-12-25T06:15:53.070Z,8.63
2018-12-25T06:18:20.370Z,9.33
2018-12-25T06:20:55.073Z,8.97
2018-12-25T06:23:17.071Z,7.50
2018-12-25T06:25:44.686Z,10.87
2018-12-25T06:28:12.347Z,10.37
2018-12-25T06:30:39.654Z,9.60
2018-12-25T06:33:06.995Z,6.40
2018-12-25T06:35:34.285Z,10.80
2018-12-25T06:38:01.610Z,8.13
2018-12-25T06:40:28.938Z,9.83
2018-12-25T06:42:56.242Z,8.87
2018-12-25T06:45:23.546Z,7.00
2018-12-25T06:47:50.881Z,7.70
2018-12-25T06:50:18.525Z,7.97
2018-12-25T06:52:45.858Z,8.10
2018-12-25T06:55:13.181Z,9.53
2018-12-25T06:57:40.804Z,10.40
2018-12-25T07:00:08.455Z,7.97
2018-12-25T07:02:35.763Z,10.77
2018-12-25T07:05:03.085Z,7.37
2018-12-25T07:07:30.394Z,8.63
2018-12-25T07:09:57.970Z,8.90
2018-12-25T07:12:25.323Z,8.00
2018-12-25T07:14:52.637Z,10.07
2018-12-25T07:17:19.953Z,7.80
2018-12-25T07:19:47.266Z,9.30
2018-12-25T07:22:14.842Z,8.47
2018-12-25T07:24:42.147Z,7.63
2018-12-25T07:27:09.455Z,8.43
2018-12-25T07:29:36.778Z,7.50
2018-12-25T07:32:04.110Z,8.13
2018-12-25T07:34:31.408Z,9.83
2018-12-25T07:36:58.785Z,9.80
2018-12-25T07:39:26.114Z,9.07
2018-12-25T07:41:53.424Z,9.23
2018-12-25T07:44:20.734Z,8.63
2018-12-25T07:46:48.377Z,7.97
2018-12-25T07:51:49.331Z,7.87
2018-12-25T07:54:16.894Z,8.30
2018-12-25T07:56:44.547Z,7.87
2018-12-25T07:59:12.111Z,8.03
2018-12-25T08:01:39.419Z,9.13
2018-12-25T08:04:06.750Z,8.60
2018-12-25T08:06:34.047Z,9.00
2018-12-25T08:09:01.631Z,7.67
2018-12-25T08:11:28.933Z,11.23
2018-12-25T08:13:56.266Z,11.17
2018-12-25T08:16:23.607Z,10.47
2018-12-25T08:18:51.251Z,10.97
2018-12-25T08:21:18.560Z,11.77
2018-12-25T08:23:45.886Z,9.83
2018-12-25T08:26:13.193Z,9.07
2018-12-25T08:28:40.522Z,7.80
2018-12-25T08:31:08.241Z,8.40
2018-12-25T08:33:37.046Z,8.67
2018-12-25T08:36:04.354Z,9.00
2018-12-25T08:38:32.025Z,7.63
2018-12-25T08:40:59.398Z,8.50
2018-12-25T08:43:26.754Z,8.67
2018-12-25T08:45:54.103Z,8.00
2018-12-25T08:48:21.449Z,7.23
2018-12-25T08:50:49.001Z,8.47
2018-12-25T08:53:16.322Z,14.23
2018-12-25T08:55:43.910Z,9.63
2018-12-25T08:58:11.218Z,7.43
2018-12-25T09:00:38.549Z,10.83
2018-12-25T09:03:06.174Z,11.53
2018-12-25T09:05:33.849Z,11.10
2018-12-25T09:08:01.167Z,9.77
2018-12-25T09:10:28.486Z,8.50
2018-12-25T09:12:56.102Z,11.83
2018-12-25T09:15:23.665Z,7.93
2018-12-25T09:17:50.999Z,12.13
2018-12-25T09:20:18.572Z,9.97
2018-12-25T09:22:46.047Z,7.83
2018-12-25T09:25:13.343Z,8.73
2018-12-25T09:27:40.942Z,10.50
2018-12-25T09:33:02.080Z,8.40
2018-12-25T09:35:29.382Z,11.93
2018-12-25T09:37:56.986Z,9.07
2018-12-25T09:40:24.290Z,8.50
2018-12-25T09:42:51.626Z,11.57
2018-12-25T09:45:18.946Z,9.87
2018-12-25T09:47:46.498Z,7.90
2018-12-25T09:50:13.830Z,9.90
2018-12-25T09:52:41.160Z,10.40
2018-12-25T09:55:08.465Z,10.63
2018-12-25T09:57:36.126Z,9.67
2018-12-25T10:02:56.949Z,9.37
2018-12-25T10:05:24.598Z,9.40
2018-12-25T10:07:51.958Z,9.27
2018-12-25T10:10:19.266Z,9.50
2018-12-25T10:12:46.574Z,10.47
2018-12-25T10:15:13.898Z,8.80
2018-12-25T10:17:41.222Z,9.30
2018-12-25T10:20:08.554Z,9.00
2018-12-25T10:22:35.867Z,11.80
2018-12-25T10:25:03.432Z,10.97
2018-12-25T10:27:30.754Z,17.30
2018-12-25T10:29:58.065Z,17.27
2018-12-25T10:32:25.406Z,16.40
2018-12-25T10:34:52.743Z,11.67
2018-12-25T10:37:20.050Z,13.03
2018-12-25T10:39:47.374Z,12.07
2018-12-25T10:42:15.005Z,12.00
2018-12-25T10:44:42.562Z,10.57
2018-12-25T10:47:09.950Z,12.33
2018-12-25T10:49:37.390Z,11.37
2018-12-25T10:52:11.514Z,11.47
2018-12-25T10:54:34.335Z,11.87
2018-12-25T10:57:01.643Z,12.43
2018-12-25T10:59:29.250Z,12.50
2018-12-25T11:01:56.906Z,12.17
2018-12-25T11:04:24.470Z,15.40
2018-12-25T11:06:51.886Z,17.43
2018-12-25T11:09:19.490Z,15.03
2018-12-25T11:11:46.802Z,13.43
2018-12-25T11:14:14.498Z,17.40
2018-12-25T11:16:41.806Z,22.97
2018-12-25T11:19:09.407Z,13.00
2018-12-25T11:21:36.808Z,11.20
2018-12-25T11:24:04.145Z,10.43
2018-12-25T11:26:31.453Z,13.20
2018-12-25T11:28:58.770Z,11.37
2018-12-25T11:31:26.412Z,13.60
2018-12-25T11:33:53.862Z,12.30
2018-12-25T11:36:21.194Z,13.40
2018-12-25T11:38:48.510Z,12.73
2018-12-25T11:41:16.102Z,12.87
2018-12-25T11:43:43.430Z,14.90
2018-12-25T11:46:10.738Z,12.57
2018-12-25T11:48:38.078Z,11.00
2018-12-25T11:51:05.429Z,11.93
2018-12-25T11:53:33.082Z,14.73
2018-12-25T11:56:00.638Z,10.30
2018-12-25T11:58:39.809Z,12.53
2018-12-25T12:00:57.246Z,11.03
2018-12-25T12:03:24.643Z,11.47
2018-12-25T12:05:52.202Z,11.87
2018-12-25T12:08:19.557Z,11.60
2018-12-25T12:10:47.217Z,10.40
2018-12-25T12:13:14.555Z,11.87
2018-12-25T12:15:41.862Z,11.60
2018-12-25T12:18:09.482Z,11.63
2018-12-25T12:20:36.865Z,11.07
2018-12-25T12:23:04.497Z,11.83
2018-12-25T12:25:32.059Z,12.97
2018-12-25T12:27:59.390Z,12.17
2018-12-25T12:30:26.701Z,12.33
2018-12-25T12:32:54.034Z,10.53
2018-12-25T12:35:21.674Z,11.73
2018-12-25T12:37:49.018Z,11.63
2018-12-25T12:40:16.593Z,10.83
2018-12-25T12:42:43.903Z,10.30
2018-12-25T12:45:11.248Z,13.17
2018-12-25T12:50:50.086Z,10.50
2018-12-25T12:53:17.478Z,11.57
2018-12-25T12:55:44.791Z,10.27
2018-12-25T12:58:12.375Z,11.73
2018-12-25T13:00:39.710Z,9.87
2018-12-25T13:03:07.055Z,13.73
2018-12-25T13:05:34.362Z,12.60
2018-12-25T13:08:01.670Z,10.13
2018-12-25T13:10:29.023Z,11.60
2018-12-25T13:12:57.438Z,12.67
2018-12-25T13:15:24.747Z,12.57
2018-12-25T13:17:52.078Z,12.47
2018-12-25T13:20:19.395Z,13.93
2018-12-25T13:22:54.011Z,13.47
2018-12-25T13:25:16.262Z,13.17
2018-12-25T13:27:43.606Z,11.67
2018-12-25T13:30:10.941Z,10.77
2018-12-25T13:32:38.347Z,12.13
2018-12-25T13:35:05.747Z,12.53
2018-12-25T13:37:33.176Z,12.47
2018-12-25T13:40:00.490Z,14.47
2018-12-25T13:42:27.830Z,19.23
2018-12-25T13:44:55.266Z,16.77
2018-12-25T13:47:22.578Z,13.73
2018-12-25T13:49:57.422Z,12.97
2018-12-25T13:52:25.041Z,11.20
2018-12-25T13:54:52.350Z,14.23
2018-12-25T13:57:19.678Z,10.63
2018-12-25T13:59:46.989Z,12.50
2018-12-25T14:02:14.316Z,11.27
2018-12-25T14:04:41.625Z,12.00
2018-12-25T14:07:08.962Z,11.23
2018-12-25T14:09:36.514Z,12.07
2018-12-25T14:14:58.692Z,9.23
2018-12-25T14:17:26.001Z,9.67
2018-12-25T14:19:53.698Z,9.37
2018-12-25T14:22:21.350Z,9.97
2018-12-25T14:24:49.135Z,9.93
2018-12-25T14:27:16.417Z,15.67
2018-12-25T14:29:43.745Z,12.27
2018-12-25T14:32:11.082Z,12.40
2018-12-25T14:34:38.724Z,14.17
2018-12-25T14:37:06.041Z,13.33
2018-12-25T14:39:33.351Z,15.60
2018-12-25T14:42:00.702Z,14.40
2018-12-25T14:44:28.035Z,10.30
2018-12-25T14:46:55.346Z,12.30
2018-12-25T14:49:22.678Z,13.77
2018-12-25T14:52:01.752Z,11.47
2018-12-25T14:54:19.296Z,12.50
2018-12-25T14:56:46.605Z,14.30
2018-12-25T14:59:13.926Z,12.40
2018-12-25T15:01:41.257Z,12.40
2018-12-25T15:04:08.568Z,10.90
2018-12-25T15:06:35.908Z,13.70
2018-12-25T15:12:10.487Z,12.57
2018-12-25T15:14:37.797Z,12.43
2018-12-25T15:17:05.418Z,13.80
2018-12-25T15:19:32.753Z,12.47
2018-12-25T15:22:00.064Z,12.97
2018-12-25T15:24:27.403Z,12.30
2018-12-25T15:26:54.746Z,11.20
2018-12-25T15:29:23.462Z,12.30
2018-12-25T15:31:51.381Z,11.67
2018-12-25T15:34:18.690Z,11.60
2018-12-25T15:36:46.018Z,10.27
2018-12-25T15:39:13.650Z,11.73
2018-12-25T15:41:41.309Z,12.03
2018-12-25T15:44:08.650Z,19.23
2018-12-25T15:46:35.955Z,13.93
2018-12-25T15:49:03.291Z,12.73
2018-12-25T15:51:30.601Z,12.77
2018-12-25T15:53:57.927Z,11.17
2018-12-25T15:56:25.266Z,15.03
2018-12-25T15:58:52.582Z,18.23
2018-12-25T16:01:19.918Z,18.73
2018-12-25T16:03:47.494Z,18.60
2018-12-25T16:06:14.840Z,27.63
2018-12-25T16:08:42.402Z,25.47
2018-12-25T16:11:09.962Z,16.03
2018-12-25T16:13:37.304Z,17.93
2018-12-25T16:16:04.628Z,12.60
2018-12-25T16:18:31.962Z,12.77
2018-12-25T16:20:59.274Z,14.13
2018-12-25T16:23:26.610Z,14.23
2018-12-25T16:25:54.294Z,15.07
2018-12-25T16:28:21.631Z,15.50
2018-12-25T16:30:48.993Z,17.53
2018-12-25T16:33:16.307Z,19.67
2018-12-25T16:35:43.641Z,19.57
2018-12-25T16:38:10.983Z,17.90
2018-12-25T16:40:38.621Z,18.50
2018-12-25T16:43:05.965Z,18.13
2018-12-25T16:45:33.269Z,17.53
2018-12-25T16:48:00.882Z,20.63
2018-12-25T16:50:28.229Z,20.00
2018-12-25T16:52:55.546Z,18.67
2018-12-25T16:55:22.861Z,18.90
2018-12-25T16:57:50.197Z,17.30
2018-12-25T17:00:17.508Z,16.10
2018-12-25T17:05:18.034Z,42.10
2018-12-25T17:07:45.342Z,22.23
2018-12-25T17:10:13.007Z,20.40
2018-12-25T17:12:40.325Z,20.03
2018-12-25T17:15:27.005Z,20.10
2018-12-25T17:17:54.325Z,21.93
2018-12-25T17:20:21.665Z,25.27
2018-12-25T17:22:49.299Z,27.83
2018-12-25T17:25:18.272Z,27.07
2018-12-25T17:27:45.882Z,27.87
2018-12-25T17:30:13.210Z,26.83
2018-12-25T17:32:40.562Z,23.33
2018-12-25T17:35:08.150Z,23.57
2018-12-25T17:37:35.465Z,23.10
2018-12-25T17:40:02.819Z,23.63
2018-12-25T17:42:30.417Z,19.70
2018-12-25T17:44:58.086Z,17.47
2018-12-25T17:47:25.419Z,19.47
2018-12-25T17:49:52.753Z,20.30
2018-12-25T17:52:20.066Z,27.20
2018-12-25T17:54:47.397Z,24.80
2018-12-25T17:57:14.795Z,22.80
2018-12-25T17:59:43.775Z,26.17
2018-12-25T18:02:11.086Z,33.20
2018-12-25T18:04:38.397Z,31.03
2018-12-25T18:07:05.734Z,26.50
2018-12-25T18:09:33.078Z,25.07
2018-12-25T18:12:00.422Z,26.97
2018-12-25T18:14:27.731Z,20.80
2018-12-25T18:16:55.033Z,20.27
2018-12-25T18:19:22.371Z,20.47
2018-12-25T18:21:49.682Z,17.47
2018-12-25T18:24:19.423Z,16.17
2018-12-25T18:26:46.094Z,19.67
2018-12-25T18:29:13.410Z,19.90
2018-12-25T18:31:40.749Z,25.07
2018-12-25T18:34:08.061Z,47.90
2018-12-25T18:36:35.693Z,48.43
2018-12-25T18:41:37.393Z,47.13
2018-12-25T18:44:04.704Z,45.83
2018-12-25T18:46:32.365Z,43.43
2018-12-25T18:48:59.927Z,37.07
2018-12-25T18:51:27.262Z,27.90
2018-12-25T18:53:54.602Z,19.97
2018-12-25T18:56:21.914Z,25.47
2018-12-25T18:58:49.254Z,21.67
2018-12-25T19:01:16.903Z,25.07
2018-12-25T19:03:44.209Z,20.87
2018-12-25T19:06:11.806Z,20.80
2018-12-25T19:08:39.195Z,20.53
2018-12-25T19:11:06.573Z,19.60
2018-12-25T19:13:33.890Z,19.70
2018-12-25T19:16:01.225Z,20.70
2018-12-25T19:18:28.538Z,23.67
2018-12-25T19:20:55.869Z,22.00
2018-12-25T19:23:23.218Z,24.90
2018-12-25T19:25:50.847Z,22.13
2018-12-25T19:28:18.158Z,31.30
2018-12-25T19:30:45.501Z,26.90
2018-12-25T19:33:13.110Z,23.80
2018-12-25T19:35:40.429Z,25.97
2018-12-25T19:38:07.765Z,27.53
2018-12-25T19:40:35.382Z,31.23
2018-12-25T19:43:02.717Z,32.87
2018-12-25T19:48:23.999Z,33.97
2018-12-25T19:50:51.301Z,34.53
2018-12-25T19:53:18.657Z,34.03
2018-12-25T19:55:45.967Z,34.07
2018-12-25T19:58:13.279Z,50.07
2018-12-25T20:00:40.933Z,42.07
2018-12-25T20:03:08.247Z,36.23
2018-12-25T20:05:54.930Z,33.40
2018-12-25T20:08:42.358Z,34.33
2018-12-25T20:11:29.270Z,34.33
2018-12-25T20:14:16.037Z,33.57
2018-12-25T20:17:02.699Z,36.33
2018-12-25T20:19:49.616Z,42.23
2018-12-25T20:22:37.817Z,39.27
2018-12-25T20:25:25.129Z,35.73
2018-12-25T20:28:12.050Z,40.70
2018-12-25T20:30:58.710Z,46.17
2018-12-25T20:33:45.394Z,41.80
2018-12-25T20:39:26.297Z,41.13
2018-12-25T20:48:14.330Z,37.23
2018-12-25T20:51:00.998Z,45.17
2018-12-25T20:53:47.659Z,53.77
2018-12-25T20:56:34.339Z,38.43
2018-12-25T20:59:20.991Z,33.83
2018-12-25T21:02:07.661Z,39.77
2018-12-25T21:04:54.341Z,37.93
2018-12-25T21:10:48.511Z,45.03
2018-12-25T21:13:35.173Z,42.87
2018-12-25T21:16:22.087Z,40.63
2018-12-25T21:19:08.758Z,41.83
2018-12-25T21:21:55.411Z,55.07
2018-12-25T21:24:42.087Z,59.37
2018-12-25T21:27:28.736Z,47.43
2018-12-25T21:29:56.077Z,49.00
2018-12-25T21:32:42.695Z,52.90
2018-12-25T21:35:29.369Z,37.80
2018-12-25T21:40:51.029Z,39.07
2018-12-25T21:46:25.957Z,49.17
2018-12-25T21:48:53.618Z,49.60
2018-12-25T21:51:20.953Z,47.50
2018-12-25T21:53:48.306Z,40.83
2018-12-25T21:56:34.986Z,43.60
2018-12-25T22:01:56.090Z,37.83
2018-12-25T22:04:23.397Z,40.03
2018-12-25T22:06:50.709Z,44.03
2018-12-25T22:09:37.398Z,55.77
2018-12-25T22:12:04.712Z,55.87
2018-12-25T22:14:32.120Z,43.37
2018-12-25T22:16:59.434Z,40.13
2018-12-25T22:19:26.908Z,46.90
2018-12-25T22:21:54.349Z,38.80
2018-12-25T22:24:21.680Z,38.80
2018-12-25T22:26:49.134Z,42.03
2018-12-25T22:29:16.698Z,42.00
2018-12-25T22:31:44.045Z,40.73
2018-12-25T22:34:11.430Z,32.33
2018-12-25T22:36:39.073Z,38.20
2018-12-25T22:39:06.394Z,42.00
2018-12-25T22:41:33.987Z,51.00
2018-12-25T22:44:01.318Z,40.47
2018-12-25T22:46:47.978Z,43.73
2018-12-25T22:49:15.463Z,39.93
2018-12-25T22:51:42.855Z,39.50
2018-12-25T22:54:10.161Z,38.77
2018-12-25T22:56:37.514Z,43.17
2018-12-25T22:59:04.977Z,34.27
2018-12-25T23:01:32.411Z,43.37
2018-12-25T23:03:59.722Z,37.77
2018-12-25T23:06:27.060Z,37.43
2018-12-25T23:09:10.560Z,39.97
2018-12-25T23:11:23.514Z,35.50
2018-12-25T23:13:50.842Z,39.83
2018-12-25T23:16:18.449Z,42.97
2018-12-25T23:18:45.762Z,43.40
2018-12-25T23:21:13.096Z,35.80
2018-12-25T23:23:40.488Z,36.20
2018-12-25T23:26:07.786Z,36.83
2018-12-25T23:28:35.102Z,35.93
2018-12-25T23:31:02.461Z,37.43
2018-12-25T23:33:30.195Z,37.63
2018-12-25T23:35:57.598Z,32.63
2018-12-25T23:38:24.916Z,35.33
2018-12-25T23:40:52.234Z,35.00
2018-12-25T23:43:19.647Z,41.53
2018-12-25T23:45:47.218Z,39.23
2018-12-25T23:48:14.599Z,43.53
2018-12-25T23:50:41.926Z,43.50
2018-12-25T23:53:09.250Z,46.60
2018-12-25T23:55:36.642Z,41.10
2018-12-25T23:58:03.958Z,41.43
